createdAt,value
2018-12-05T00:01:43.714Z,23.45
2018-12-05T00:04:11.165Z,24.25
2018-12-05T00:06:38.577Z,23.40
2018-12-05T00:09:06.890Z,25.65
2018-12-05T00:11:34.308Z,25.08
2018-12-05T00:14:01.843Z,25.08
2018-12-05T00:16:29.729Z,24.18
2018-12-05T00:19:01.374Z,25.27
2018-12-05T00:21:29.208Z,23.45
2018-12-05T00:23:56.709Z,24.87
2018-12-05T00:26:24.104Z,24.27
2018-12-05T00:28:51.525Z,23.38
2018-12-05T00:31:18.929Z,23.80
2018-12-05T00:33:46.324Z,24.02
2018-12-05T00:36:13.742Z,23.35
2018-12-05T00:38:41.157Z,24.32
2018-12-05T00:41:08.561Z,25.40
2018-12-05T00:43:35.961Z,27.30
2018-12-05T00:46:03.366Z,25.72
2018-12-05T00:48:30.765Z,24.32
2018-12-05T00:50:58.200Z,27.22
2018-12-05T00:53:25.601Z,24.95
2018-12-05T00:55:53.012Z,24.02
2018-12-05T00:58:20.413Z,26.77
2018-12-05T01:00:47.817Z,27.15
2018-12-05T01:03:15.285Z,27.32
2018-12-05T01:05:42.737Z,26.00
2018-12-05T01:08:10.141Z,27.55
2018-12-05T01:10:37.549Z,26.55
2018-12-05T01:13:05.049Z,26.33
2018-12-05T01:15:32.513Z,25.80
2018-12-05T01:17:59.913Z,27.37
2018-12-05T01:20:27.321Z,27.58
2018-12-05T01:22:55.646Z,25.23
2018-12-05T01:25:23.056Z,28.83
2018-12-05T01:27:50.468Z,28.75
2018-12-05T01:30:17.869Z,27.58
2018-12-05T01:32:45.281Z,29.72
2018-12-05T01:35:12.752Z,27.07
2018-12-05T01:37:40.163Z,27.13
2018-12-05T01:40:07.616Z,26.65
2018-12-05T01:42:35.026Z,28.27
2018-12-05T01:45:02.569Z,27.87
2018-12-05T01:47:29.989Z,29.05
2018-12-05T01:49:57.393Z,26.77
2018-12-05T01:52:24.813Z,27.87
2018-12-05T01:54:52.229Z,26.02
2018-12-05T01:57:19.635Z,28.38
2018-12-05T01:59:47.046Z,27.80
2018-12-05T02:02:14.453Z,29.12
2018-12-05T02:04:41.865Z,28.07
2018-12-05T02:07:09.341Z,30.15
2018-12-05T02:09:36.794Z,29.40
2018-12-05T02:12:04.249Z,26.23
2018-12-05T02:14:31.682Z,29.77
2018-12-05T02:16:59.087Z,30.92
2018-12-05T02:19:26.737Z,31.75
2018-12-05T02:21:54.156Z,29.63
2018-12-05T02:24:21.553Z,31.50
2018-12-05T02:26:48.956Z,31.40
2018-12-05T02:29:16.379Z,31.87
2018-12-05T02:31:43.781Z,31.45
2018-12-05T02:34:11.316Z,31.70
2018-12-05T02:36:38.778Z,32.78
2018-12-05T02:39:07.755Z,34.60
2018-12-05T02:41:35.148Z,34.98
2018-12-05T02:44:02.609Z,34.00
2018-12-05T02:46:30.015Z,33.25
2018-12-05T02:48:57.505Z,35.95
2018-12-05T02:51:24.925Z,33.98
2018-12-05T02:53:52.334Z,33.73
2018-12-05T02:56:19.825Z,33.60
2018-12-05T02:58:47.287Z,34.92
2018-12-05T03:01:14.685Z,36.00
2018-12-05T03:03:42.081Z,35.58
2018-12-05T03:06:09.603Z,32.17
2018-12-05T03:08:37.001Z,32.83
2018-12-05T03:11:04.400Z,31.90
2018-12-05T03:13:31.837Z,34.83
2018-12-05T03:15:59.273Z,34.40
2018-12-05T03:18:26.718Z,34.85
2018-12-05T03:20:54.213Z,36.15
2018-12-05T03:23:21.615Z,40.78
2018-12-05T03:25:49.041Z,35.17
2018-12-05T03:28:16.446Z,35.80
2018-12-05T03:30:43.856Z,38.00
2018-12-05T03:33:11.267Z,34.18
2018-12-05T03:35:38.817Z,32.65
2018-12-05T03:38:06.632Z,34.48
2018-12-05T03:40:34.039Z,36.68
2018-12-05T03:43:01.577Z,37.95
2018-12-05T03:45:31.683Z,37.28
2018-12-05T03:47:59.408Z,35.63
2018-12-05T03:50:26.943Z,35.08
2018-12-05T03:52:54.349Z,36.33
2018-12-05T03:55:21.764Z,38.98
2018-12-05T03:57:49.283Z,36.08
2018-12-05T04:00:16.725Z,38.28
2018-12-05T04:02:44.280Z,38.73
2018-12-05T04:05:11.734Z,35.68
2018-12-05T04:07:39.137Z,35.83
2018-12-05T04:10:06.665Z,35.95
2018-12-05T04:12:40.457Z,34.08
2018-12-05T04:15:03.597Z,30.35
2018-12-05T04:17:31.017Z,32.98
2018-12-05T04:19:58.421Z,32.28
2018-12-05T04:22:25.825Z,29.32
2018-12-05T04:24:53.249Z,29.63
2018-12-05T04:27:22.685Z,29.75
2018-12-05T04:29:50.094Z,29.95
2018-12-05T04:32:17.505Z,29.40
2018-12-05T04:34:44.928Z,30.45
2018-12-05T04:37:12.325Z,29.57
2018-12-05T04:39:39.741Z,30.05
2018-12-05T04:42:07.146Z,30.62
2018-12-05T04:44:34.554Z,33.63
2018-12-05T04:47:02.059Z,27.20
2018-12-05T04:49:29.467Z,32.33
2018-12-05T04:51:56.862Z,30.52
2018-12-05T04:54:24.281Z,33.42
2018-12-05T04:56:51.801Z,33.25
2018-12-05T04:59:19.286Z,31.27
2018-12-05T05:01:46.706Z,31.20
2018-12-05T05:04:14.442Z,35.48
2018-12-05T05:06:42.130Z,33.78
2018-12-05T05:09:09.752Z,32.85
2018-12-05T05:11:37.152Z,32.08
2018-12-05T05:14:04.660Z,30.97
2018-12-05T05:16:32.092Z,36.38
2018-12-05T05:18:59.494Z,31.95
2018-12-05T05:21:26.897Z,33.70
2018-12-05T05:23:54.318Z,37.13
2018-12-05T05:26:21.721Z,34.10
2018-12-05T05:28:49.199Z,35.20
2018-12-05T05:31:16.574Z,35.88
2018-12-05T05:33:43.982Z,35.95
2018-12-05T05:36:11.450Z,35.68
2018-12-05T05:38:38.849Z,35.08
2018-12-05T05:41:06.261Z,36.55
2018-12-05T05:43:33.665Z,36.83
2018-12-05T05:46:01.081Z,34.15
2018-12-05T05:48:28.481Z,36.25
2018-12-05T05:50:55.877Z,33.98
2018-12-05T05:53:23.297Z,33.42
2018-12-05T05:55:50.697Z,35.50
2018-12-05T05:58:18.101Z,35.58
2018-12-05T06:00:45.606Z,37.90
2018-12-05T06:03:13.006Z,33.13
2018-12-05T06:05:40.414Z,32.28
2018-12-05T06:08:07.830Z,33.90
2018-12-05T06:10:35.225Z,32.85
2018-12-05T06:13:02.642Z,34.08
2018-12-05T06:15:30.166Z,32.75
2018-12-05T06:17:57.545Z,34.05
2018-12-05T06:20:24.957Z,33.18
2018-12-05T06:22:52.357Z,33.02
2018-12-05T06:25:19.766Z,32.85
2018-12-05T06:27:47.256Z,32.08
2018-12-05T06:30:14.676Z,32.75
2018-12-05T06:32:42.081Z,31.33
2018-12-05T06:35:09.485Z,30.05
2018-12-05T06:37:36.897Z,32.42
2018-12-05T06:40:05.901Z,30.57
2018-12-05T06:42:33.313Z,32.80
2018-12-05T06:45:00.733Z,30.43
2018-12-05T06:47:28.126Z,30.43
2018-12-05T06:49:55.526Z,32.42
2018-12-05T06:52:22.940Z,31.45
2018-12-05T06:54:50.335Z,31.82
2018-12-05T06:57:17.749Z,30.35
2018-12-05T06:59:45.207Z,31.35
2018-12-05T07:02:12.657Z,30.77
2018-12-05T07:04:40.122Z,31.15
2018-12-05T07:07:07.526Z,32.05
2018-12-05T07:09:34.929Z,31.52
2018-12-05T07:12:02.346Z,31.05
2018-12-05T07:14:29.746Z,30.57
2018-12-05T07:16:57.141Z,32.30
2018-12-05T07:19:24.666Z,31.27
2018-12-05T07:21:52.046Z,31.40
2018-12-05T07:24:19.475Z,31.48
2018-12-05T07:26:46.871Z,31.80
2018-12-05T07:29:14.273Z,28.92
2018-12-05T07:31:41.733Z,29.75
2018-12-05T07:34:09.129Z,30.20
2018-12-05T07:36:36.545Z,28.83
2018-12-05T07:39:06.157Z,26.93
2018-12-05T07:41:33.565Z,29.40
2018-12-05T07:44:00.969Z,29.02
2018-12-05T07:46:28.370Z,26.65
2018-12-05T07:48:55.786Z,26.57
2018-12-05T07:51:23.201Z,26.33
2018-12-05T07:53:50.605Z,26.55
2018-12-05T07:56:18.092Z,26.68
2018-12-05T07:58:45.508Z,27.85
2018-12-05T08:01:12.909Z,25.55
2018-12-05T08:03:40.305Z,25.90
2018-12-05T08:06:07.710Z,26.53
2018-12-05T08:08:35.109Z,26.02
2018-12-05T08:11:02.535Z,26.15
2018-12-05T08:13:30.066Z,27.50
2018-12-05T08:15:57.473Z,23.95
2018-12-05T08:18:24.877Z,26.70
2018-12-05T08:20:52.287Z,27.22
2018-12-05T08:23:19.785Z,26.68
2018-12-05T08:25:47.179Z,26.80
2018-12-05T08:28:14.589Z,26.07
2018-12-05T08:30:42.000Z,26.20
2018-12-05T08:33:09.398Z,27.62
2018-12-05T08:35:36.804Z,24.10
2018-12-05T08:38:04.198Z,23.67
2018-12-05T08:40:31.735Z,25.17
2018-12-05T08:42:59.228Z,24.70
2018-12-05T08:45:26.672Z,24.90
2018-12-05T08:47:54.072Z,24.77
2018-12-05T08:50:21.480Z,25.97
2018-12-05T08:52:48.885Z,24.15
2018-12-05T08:55:16.339Z,26.48
2018-12-05T08:57:43.749Z,26.45
2018-12-05T09:00:11.236Z,27.25
2018-12-05T09:02:38.637Z,26.43
2018-12-05T09:05:06.149Z,25.95
2018-12-05T09:07:33.548Z,26.25
2018-12-05T09:10:00.948Z,27.13
2018-12-05T09:12:28.357Z,29.00
2018-12-05T09:14:55.754Z,27.50
2018-12-05T09:17:23.161Z,27.10
2018-12-05T09:19:50.555Z,27.10
2018-12-05T09:22:17.965Z,29.13
2018-12-05T09:24:45.414Z,26.52
2018-12-05T09:27:12.905Z,27.87
2018-12-05T09:29:40.304Z,28.27
2018-12-05T09:32:07.702Z,30.82
2018-12-05T09:34:35.184Z,28.73
2018-12-05T09:37:02.576Z,31.53
2018-12-05T09:39:30.538Z,29.90
2018-12-05T09:41:57.957Z,28.65
2018-12-05T09:44:25.358Z,28.37
2018-12-05T09:46:52.757Z,30.50
2018-12-05T09:49:20.165Z,27.43
2018-12-05T09:51:47.564Z,29.13
2018-12-05T09:54:14.949Z,28.13
2018-12-05T09:56:42.359Z,28.13
2018-12-05T09:59:09.752Z,26.90
2018-12-05T10:01:37.152Z,30.23
2018-12-05T10:04:04.600Z,30.67
2018-12-05T10:06:32.049Z,32.00
2018-12-05T10:08:59.456Z,28.83
2018-12-05T10:11:26.901Z,29.43
2018-12-05T10:13:54.423Z,32.30
2018-12-05T10:16:21.801Z,30.70
2018-12-05T10:18:49.221Z,30.13
2018-12-05T10:21:16.617Z,30.00
2018-12-05T10:23:44.008Z,30.90
2018-12-05T10:26:11.409Z,28.17
2018-12-05T10:28:38.811Z,32.00
2018-12-05T10:31:06.216Z,28.40
2018-12-05T10:33:33.612Z,30.20
2018-12-05T10:36:01.012Z,30.40
2018-12-05T10:38:28.477Z,28.47
2018-12-05T10:40:55.888Z,28.90
2018-12-05T10:43:23.385Z,28.50
2018-12-05T10:45:50.794Z,28.00
2018-12-05T10:48:18.234Z,29.73
2018-12-05T10:50:45.628Z,26.90
2018-12-05T10:53:13.040Z,27.17
2018-12-05T10:55:40.436Z,28.07
2018-12-05T10:58:07.877Z,27.90
2018-12-05T11:03:36.957Z,28.60
2018-12-05T11:06:09.931Z,27.30
2018-12-05T11:08:42.975Z,28.00
2018-12-05T11:11:15.860Z,27.87
2018-12-05T11:13:48.917Z,27.57
2018-12-05T11:19:21.053Z,27.17
2018-12-05T11:22:11.133Z,27.63
2018-12-05T11:24:38.707Z,27.07
2018-12-05T11:27:06.105Z,29.97
2018-12-05T11:29:33.520Z,27.00
2018-12-05T11:32:00.920Z,26.03
2018-12-05T11:34:28.352Z,27.00
2018-12-05T11:36:55.742Z,25.90
2018-12-05T11:39:23.140Z,26.80
2018-12-05T11:41:50.543Z,26.17
2018-12-05T11:44:17.996Z,24.83
2018-12-05T11:46:45.393Z,25.70
2018-12-05T11:49:12.789Z,24.73
2018-12-05T11:51:40.217Z,24.60
2018-12-05T11:54:07.609Z,24.80
2018-12-05T11:56:35.028Z,25.93
2018-12-05T11:59:02.437Z,24.37
2018-12-05T12:01:29.841Z,22.17
2018-12-05T12:03:57.342Z,23.77
2018-12-05T12:06:24.757Z,24.03
2018-12-05T12:08:52.150Z,23.97
2018-12-05T12:11:19.593Z,25.00
2018-12-05T12:13:47.002Z,24.87
2018-12-05T12:16:14.511Z,24.90
2018-12-05T12:18:41.885Z,26.50
2018-12-05T12:21:09.397Z,26.77
2018-12-05T12:23:36.843Z,24.43
2018-12-05T12:26:04.292Z,22.83
2018-12-05T12:28:31.749Z,25.23
2018-12-05T12:30:59.143Z,23.40
2018-12-05T12:33:26.537Z,23.93
2018-12-05T12:35:54.011Z,23.30
2018-12-05T12:38:21.401Z,24.57
2018-12-05T12:40:48.797Z,24.87
2018-12-05T12:43:16.202Z,25.23
2018-12-05T12:45:43.595Z,23.23
2018-12-05T12:48:10.985Z,23.47
2018-12-05T12:50:38.394Z,23.10
2018-12-05T12:53:05.836Z,24.73
2018-12-05T12:55:33.234Z,23.50
2018-12-05T12:58:00.652Z,23.87
2018-12-05T13:00:28.058Z,24.20
2018-12-05T13:02:55.448Z,24.27
2018-12-05T13:05:22.950Z,24.80
2018-12-05T13:07:50.341Z,21.90
2018-12-05T13:10:17.781Z,23.00
2018-12-05T13:12:45.189Z,23.87
2018-12-05T13:15:12.697Z,21.83
2018-12-05T13:17:40.093Z,22.00
2018-12-05T13:20:07.528Z,21.53
2018-12-05T13:22:35.002Z,22.97
2018-12-05T13:25:02.476Z,25.10
2018-12-05T13:27:29.876Z,21.77
2018-12-05T13:29:57.260Z,22.67
2018-12-05T13:32:24.765Z,22.47
2018-12-05T13:34:52.161Z,23.13
2018-12-05T13:37:19.555Z,25.43
2018-12-05T13:39:46.957Z,23.30
2018-12-05T13:42:14.351Z,23.07
2018-12-05T13:44:41.749Z,24.33
2018-12-05T13:47:09.153Z,24.53
2018-12-05T13:49:36.549Z,24.40
2018-12-05T13:52:04.034Z,22.80
2018-12-05T13:54:31.449Z,22.57
2018-12-05T13:56:58.842Z,22.87
2018-12-05T13:59:26.249Z,25.40
2018-12-05T14:01:53.652Z,21.70
2018-12-05T14:04:21.093Z,21.50
2018-12-05T14:06:48.500Z,21.87
2018-12-05T14:09:15.896Z,22.60
2018-12-05T14:11:43.285Z,22.63
2018-12-05T14:14:10.686Z,22.40
2018-12-05T14:16:38.169Z,23.07
2018-12-05T14:19:05.560Z,22.10
2018-12-05T14:21:33.017Z,22.00
2018-12-05T14:24:00.453Z,23.10
2018-12-05T14:26:27.850Z,23.40
2018-12-05T14:28:55.253Z,23.43
2018-12-05T14:31:22.647Z,24.60
2018-12-05T14:33:50.039Z,21.60
2018-12-05T14:36:17.452Z,22.43
2018-12-05T14:38:44.842Z,23.90
2018-12-05T14:41:12.277Z,24.90
2018-12-05T14:43:39.774Z,24.77
2018-12-05T14:46:07.438Z,23.03
2018-12-05T14:48:35.797Z,25.80
2018-12-05T14:51:03.260Z,25.50
2018-12-05T14:53:30.660Z,26.03
2018-12-05T14:55:58.053Z,23.43
2018-12-05T14:58:25.449Z,24.80
2018-12-05T15:00:52.849Z,24.23
2018-12-05T15:03:20.241Z,24.77
2018-12-05T15:05:47.680Z,25.10
2018-12-05T15:08:15.093Z,25.53
2018-12-05T15:10:42.481Z,24.47
2018-12-05T15:13:09.891Z,24.27
2018-12-05T15:15:37.345Z,23.40
2018-12-05T15:18:04.737Z,24.27
2018-12-05T15:20:32.137Z,23.77
2018-12-05T15:22:59.633Z,25.47
2018-12-05T15:25:27.025Z,24.67
2018-12-05T15:27:54.430Z,23.67
2018-12-05T15:30:21.925Z,24.37
2018-12-05T15:32:49.330Z,23.70
2018-12-05T15:35:16.796Z,24.93
2018-12-05T15:37:44.249Z,23.03
2018-12-05T15:40:11.650Z,23.37
2018-12-05T15:42:39.053Z,23.83
2018-12-05T15:45:06.744Z,23.07
2018-12-05T15:47:34.346Z,22.97
2018-12-05T15:50:01.754Z,22.40
2018-12-05T15:52:29.149Z,22.17
2018-12-05T15:54:56.643Z,24.70
2018-12-05T15:57:24.169Z,23.40
2018-12-05T15:59:51.569Z,23.93
2018-12-05T16:02:18.955Z,23.37
2018-12-05T16:04:46.380Z,23.60
2018-12-05T16:07:13.861Z,21.60
2018-12-05T16:09:41.317Z,24.90
2018-12-05T16:12:08.713Z,25.03
2018-12-05T16:14:36.121Z,24.47
2018-12-05T16:17:03.529Z,25.33
2018-12-05T16:19:30.974Z,24.77
2018-12-05T16:21:58.432Z,25.20
2018-12-05T16:24:25.883Z,26.57
2018-12-05T16:26:53.281Z,26.17
2018-12-05T16:29:20.685Z,23.47
2018-12-05T16:31:48.086Z,23.30
2018-12-05T16:34:15.480Z,22.83
2018-12-05T16:36:42.889Z,23.33
2018-12-05T16:39:10.403Z,24.40
2018-12-05T16:41:37.813Z,23.10
2018-12-05T16:44:12.687Z,22.35
2018-12-05T16:46:34.664Z,22.02
2018-12-05T16:49:02.066Z,21.50
2018-12-05T16:51:29.473Z,22.17
2018-12-05T16:53:56.866Z,23.23
2018-12-05T16:56:24.266Z,23.67
2018-12-05T16:58:51.677Z,21.90
2018-12-05T17:01:19.113Z,23.43
2018-12-05T17:03:46.582Z,25.02
2018-12-05T17:06:14.069Z,24.40
2018-12-05T17:08:41.468Z,24.40
2018-12-05T17:11:08.876Z,24.95
2018-12-05T17:13:38.225Z,23.23
2018-12-05T17:16:05.669Z,25.30
2018-12-05T17:18:33.073Z,25.70
2018-12-05T17:21:00.481Z,24.37
2018-12-05T17:23:27.874Z,23.83
2018-12-05T17:25:55.288Z,25.48
2018-12-05T17:28:22.689Z,26.37
2018-12-05T17:30:50.088Z,26.00
2018-12-05T17:33:17.500Z,26.23
2018-12-05T17:35:44.905Z,25.83
2018-12-05T17:38:12.382Z,26.90
2018-12-05T17:40:39.843Z,28.87
2018-12-05T17:43:07.249Z,27.23
2018-12-05T17:45:34.754Z,29.93
2018-12-05T17:48:02.153Z,28.80
2018-12-05T17:50:29.572Z,26.70
2018-12-05T17:52:56.974Z,29.07
2018-12-05T17:55:24.385Z,26.80
2018-12-05T17:57:51.801Z,26.50
2018-12-05T18:00:19.252Z,26.83
2018-12-05T18:02:46.676Z,25.60
2018-12-05T18:05:14.093Z,25.80
2018-12-05T18:07:41.540Z,24.60
2018-12-05T18:10:09.063Z,26.48
2018-12-05T18:12:36.559Z,25.75
2018-12-05T18:15:04.956Z,25.00
2018-12-05T18:17:32.506Z,27.32
2018-12-05T18:20:00.007Z,26.37
2018-12-05T18:22:27.502Z,24.98
2018-12-05T18:24:54.916Z,25.72
2018-12-05T18:27:22.365Z,24.65
2018-12-05T18:29:49.772Z,25.68
2018-12-05T18:32:17.176Z,24.47
2018-12-05T18:34:44.656Z,24.52
2018-12-05T18:37:12.204Z,24.55
2018-12-05T18:39:40.435Z,23.83
2018-12-05T18:42:08.013Z,23.62
2018-12-05T18:44:35.416Z,25.27
2018-12-05T18:47:02.918Z,23.70
2018-12-05T18:49:30.373Z,23.07
2018-12-05T18:51:57.817Z,21.20
2018-12-05T18:54:25.241Z,23.73
2018-12-05T18:56:52.642Z,24.15
2018-12-05T18:59:20.049Z,23.07
2018-12-05T19:01:47.458Z,24.95
2018-12-05T19:04:14.862Z,23.10
2018-12-05T19:06:42.281Z,22.27
2018-12-05T19:09:09.685Z,22.80
2018-12-05T19:11:37.134Z,22.37
2018-12-05T19:14:10.101Z,23.85
2018-12-05T19:16:37.553Z,23.62
2018-12-05T19:21:07.546Z,25.82
2018-12-05T19:23:34.955Z,24.45
2018-12-05T19:26:02.364Z,26.00
2018-12-05T19:28:29.768Z,22.87
2018-12-05T19:30:57.224Z,22.75
2018-12-05T19:33:24.648Z,24.82
2018-12-05T19:35:52.049Z,24.00
2018-12-05T19:38:19.452Z,22.70
2018-12-05T19:40:46.904Z,23.23
2018-12-05T19:43:14.331Z,21.90
2018-12-05T19:45:41.740Z,22.80
2018-12-05T19:48:09.157Z,21.02
2018-12-05T19:50:36.565Z,22.32
2018-12-05T19:53:03.975Z,22.82
2018-12-05T19:55:31.476Z,22.50
2018-12-05T19:57:58.936Z,22.40
2018-12-05T20:00:26.898Z,21.85
2018-12-05T20:02:54.309Z,23.40
2018-12-05T20:05:21.717Z,23.80
2018-12-05T20:07:49.117Z,23.60
2018-12-05T20:10:16.537Z,22.85
2018-12-05T20:12:43.944Z,23.22
2018-12-05T20:15:11.446Z,21.00
2018-12-05T20:17:38.860Z,23.40
2018-12-05T20:20:07.668Z,21.82
2018-12-05T20:22:35.077Z,23.83
2018-12-05T20:25:02.537Z,24.77
2018-12-05T20:27:29.988Z,25.45
2018-12-05T20:29:57.389Z,25.10
2018-12-05T20:32:24.809Z,23.80
2018-12-05T20:34:52.209Z,24.60
2018-12-05T20:37:19.613Z,25.62
2018-12-05T20:39:47.026Z,25.03
2018-12-05T20:42:15.937Z,24.37
2018-12-05T20:44:43.389Z,23.77
2018-12-05T20:47:10.882Z,24.25
2018-12-05T20:49:38.282Z,24.20
2018-12-05T20:52:05.756Z,24.43
2018-12-05T20:54:33.198Z,23.15
2018-12-05T20:57:00.603Z,22.57
2018-12-05T20:59:28.057Z,22.82
2018-12-05T21:01:55.477Z,24.43
2018-12-05T21:04:22.896Z,23.73
2018-12-05T21:06:50.296Z,22.97
2018-12-05T21:09:17.704Z,22.27
2018-12-05T21:11:45.153Z,23.50
2018-12-05T21:14:12.564Z,21.80
2018-12-05T21:16:39.985Z,22.93
2018-12-05T21:19:07.425Z,23.30
2018-12-05T21:21:34.830Z,21.17
2018-12-05T21:24:02.415Z,22.33
2018-12-05T21:26:29.897Z,22.75
2018-12-05T21:28:57.296Z,23.27
2018-12-05T21:31:24.702Z,22.47
2018-12-05T21:33:52.117Z,23.77
2018-12-05T21:36:19.522Z,22.87
2018-12-05T21:38:46.952Z,22.25
2018-12-05T21:41:14.356Z,22.90
2018-12-05T21:43:41.761Z,22.80
2018-12-05T21:46:09.189Z,23.00
2018-12-05T21:48:36.588Z,22.20
2018-12-05T21:51:04.123Z,24.37
2018-12-05T21:53:31.527Z,23.15
2018-12-05T21:55:58.937Z,24.87
2018-12-05T21:58:26.365Z,24.12
2018-12-05T22:00:53.781Z,24.20
2018-12-05T22:03:21.202Z,23.00
2018-12-05T22:05:48.585Z,25.25
2018-12-05T22:08:16.002Z,24.15
2018-12-05T22:10:43.405Z,23.50
2018-12-05T22:13:10.808Z,24.23
2018-12-05T22:15:38.226Z,23.00
2018-12-05T22:18:05.669Z,23.90
2018-12-05T22:20:33.090Z,23.18
2018-12-05T22:23:00.606Z,22.95
2018-12-05T22:25:28.088Z,23.87
2018-12-05T22:27:55.544Z,25.37
2018-12-05T22:30:22.971Z,23.95
2018-12-05T22:32:50.393Z,26.70
2018-12-05T22:35:17.827Z,25.45
2018-12-05T22:37:45.220Z,26.00
2018-12-05T22:40:12.621Z,24.02
2018-12-05T22:42:40.100Z,24.80
2018-12-05T22:45:07.697Z,25.43
2018-12-05T22:47:35.125Z,25.65
2018-12-05T22:50:02.582Z,26.20
2018-12-05T22:52:30.028Z,26.20
2018-12-05T22:54:57.434Z,25.20
2018-12-05T22:57:24.853Z,26.62
2018-12-05T22:59:52.520Z,25.50
2018-12-05T23:02:20.008Z,24.85
2018-12-05T23:04:47.480Z,24.80
2018-12-05T23:07:14.920Z,24.53
2018-12-05T23:09:42.372Z,23.45
2018-12-05T23:12:09.792Z,24.10
2018-12-05T23:14:37.245Z,25.02
2018-12-05T23:17:04.649Z,22.80
2018-12-05T23:19:32.077Z,24.25
2018-12-05T23:21:59.564Z,24.12
2018-12-05T23:24:28.065Z,24.10
2018-12-05T23:26:55.540Z,23.47
2018-12-05T23:29:22.941Z,23.13
2018-12-05T23:31:50.341Z,25.15
2018-12-05T23:34:17.749Z,26.93
2018-12-05T23:36:45.153Z,25.17
2018-12-05T23:39:12.557Z,24.92
2018-12-05T23:41:40.022Z,25.97
2018-12-05T23:44:07.409Z,24.70
2018-12-05T23:46:34.834Z,25.43
2018-12-05T23:49:02.225Z,26.40
2018-12-05T23:51:29.616Z,24.47
2018-12-05T23:53:57.025Z,25.37
2018-12-05T23:56:24.441Z,27.67
2018-12-05T23:58:51.828Z,26.20
